createdAt,value
2023-05-31T00:00:26.804Z,15.20
2023-05-31T00:02:53.436Z,15.15
2023-05-31T00:05:20.092Z,15.18
2023-05-31T00:07:46.574Z,15.15
2023-05-31T00:10:13.044Z,15.10
2023-05-31T00:12:39.524Z,15.13
2023-05-31T00:15:06.657Z,15.13
2023-05-31T00:17:49.810Z,15.11
2023-05-31T00:20:17.835Z,15.08
2023-05-31T00:22:44.430Z,14.96
2023-05-31T00:25:10.956Z,14.99
2023-05-31T00:27:37.471Z,15.03
2023-05-31T00:30:04.316Z,15.02
2023-05-31T00:32:31.229Z,14.94
2023-05-31T00:34:57.824Z,14.90
2023-05-31T00:37:24.335Z,14.86
2023-05-31T00:39:50.979Z,14.82
2023-05-31T00:42:17.496Z,14.79
2023-05-31T00:44:44.008Z,14.84
2023-05-31T00:47:10.761Z,14.82
2023-05-31T00:49:37.365Z,14.79
2023-05-31T00:52:05.779Z,14.76
2023-05-31T00:54:32.354Z,14.76
2023-05-31T00:56:58.859Z,14.75
2023-05-31T00:59:25.777Z,14.70
2023-05-31T01:01:55.149Z,14.66
2023-05-31T01:04:22.435Z,14.69
2023-05-31T01:06:51.068Z,14.69
2023-05-31T01:09:18.832Z,14.69
2023-05-31T01:12:14.660Z,14.69
2023-05-31T01:15:09.880Z,14.63
2023-05-31T01:17:42.377Z,14.58
2023-05-31T01:20:10.268Z,14.56
2023-05-31T01:23:03.730Z,14.57
2023-05-31T01:25:52.110Z,14.46
2023-05-31T01:28:19.894Z,14.52
2023-05-31T01:30:47.940Z,14.47
2023-05-31T01:33:16.608Z,14.47
2023-05-31T01:35:43.161Z,14.48
2023-05-31T01:38:09.757Z,14.42
2023-05-31T01:40:36.801Z,14.49
2023-05-31T01:43:06.890Z,14.50
2023-05-31T01:45:35.740Z,14.49
2023-05-31T01:48:06.302Z,14.46
2023-05-31T01:50:35.114Z,14.46
2023-05-31T01:53:01.898Z,14.49
2023-05-31T01:55:29.300Z,14.45
2023-05-31T01:57:57.489Z,14.45
2023-05-31T02:00:27.769Z,14.46
2023-05-31T02:02:54.987Z,14.38
2023-05-31T02:05:21.742Z,14.38
2023-05-31T02:07:51.173Z,14.36
2023-05-31T02:10:18.043Z,14.35
2023-05-31T02:12:44.614Z,14.30
2023-05-31T02:15:14.158Z,14.26
2023-05-31T02:17:44.076Z,14.25
2023-05-31T02:20:13.952Z,14.28
2023-05-31T02:22:42.239Z,14.26
2023-05-31T02:25:13.665Z,14.25
2023-05-31T02:27:41.699Z,14.25
2023-05-31T02:30:09.828Z,14.22
2023-05-31T02:32:38.947Z,14.17
2023-05-31T02:35:08.021Z,14.19
2023-05-31T02:37:35.748Z,14.13
2023-05-31T02:40:09.318Z,14.11
2023-05-31T02:42:37.434Z,14.09
2023-05-31T02:45:04.352Z,14.08
2023-05-31T02:47:30.888Z,14.07
2023-05-31T02:49:57.348Z,14.05
2023-05-31T02:52:24.687Z,14.03
2023-05-31T02:54:51.304Z,14.04
2023-05-31T02:57:17.778Z,14.02
2023-05-31T02:59:45.279Z,13.93
2023-05-31T03:02:11.822Z,13.92
2023-05-31T03:04:38.624Z,13.88
2023-05-31T03:07:05.272Z,13.86
2023-05-31T03:09:31.812Z,13.83
2023-05-31T03:11:58.329Z,13.86
2023-05-31T03:14:24.856Z,13.82
2023-05-31T03:16:54.451Z,13.82
2023-05-31T03:19:22.178Z,13.75
2023-05-31T03:21:48.887Z,13.72
2023-05-31T03:24:15.761Z,13.73
2023-05-31T03:26:42.451Z,13.73
2023-05-31T03:29:11.312Z,13.72
2023-05-31T03:31:38.111Z,13.69
2023-05-31T03:34:04.910Z,13.67
2023-05-31T03:36:35.500Z,13.62
2023-05-31T03:39:02.324Z,13.61
2023-05-31T03:41:29.113Z,13.57
2023-05-31T03:43:55.982Z,13.51
2023-05-31T03:46:22.812Z,13.57
2023-05-31T03:48:49.550Z,13.55
2023-05-31T03:51:16.793Z,13.58
2023-05-31T03:53:43.327Z,13.55
2023-05-31T03:56:09.950Z,13.54
2023-05-31T03:58:36.588Z,13.51
2023-05-31T04:01:03.690Z,13.51
2023-05-31T04:03:30.545Z,13.53
2023-05-31T04:05:57.252Z,13.53
2023-05-31T04:08:23.821Z,13.55
2023-05-31T04:10:50.441Z,13.58
2023-05-31T04:13:16.952Z,13.52
2023-05-31T04:15:43.506Z,13.56
2023-05-31T04:18:10.153Z,13.53
2023-05-31T04:20:36.841Z,13.55
2023-05-31T04:23:03.328Z,13.57
2023-05-31T04:25:29.851Z,13.52
2023-05-31T04:27:57.238Z,13.53
2023-05-31T04:30:25.298Z,13.53
2023-05-31T04:32:53.993Z,13.57
2023-05-31T04:35:21.022Z,13.54
2023-05-31T04:37:49.478Z,13.55
2023-05-31T04:40:16.072Z,13.53
2023-05-31T04:42:43.152Z,13.56
2023-05-31T04:45:10.541Z,13.59
2023-05-31T04:47:37.333Z,13.61
2023-05-31T04:50:04.371Z,13.64
2023-05-31T04:52:34.901Z,13.70
2023-05-31T04:55:01.922Z,13.71
2023-05-31T04:57:32.118Z,13.74
2023-05-31T04:59:59.731Z,13.73
2023-05-31T05:02:28.019Z,13.78
2023-05-31T05:04:54.926Z,13.76
2023-05-31T05:07:22.481Z,13.78
2023-05-31T05:09:49.087Z,13.80
2023-05-31T05:12:15.549Z,13.83
2023-05-31T05:14:42.030Z,13.85
2023-05-31T05:17:08.701Z,13.89
2023-05-31T05:19:35.433Z,13.86
2023-05-31T05:22:02.098Z,13.89
2023-05-31T05:24:28.709Z,13.94
2023-05-31T05:26:55.252Z,13.98
2023-05-31T05:29:21.783Z,14.01
2023-05-31T05:31:51.666Z,14.03
2023-05-31T05:34:20.941Z,14.07
2023-05-31T05:36:48.140Z,14.10
2023-05-31T05:39:14.704Z,14.12
2023-05-31T05:41:41.342Z,14.15
2023-05-31T05:44:07.853Z,14.19
2023-05-31T05:46:34.495Z,14.21
2023-05-31T05:49:01.606Z,14.27
2023-05-31T05:51:28.097Z,14.31
2023-05-31T05:53:54.582Z,14.36
2023-05-31T05:56:21.163Z,14.39
2023-05-31T05:58:47.915Z,14.45
2023-05-31T06:01:19.472Z,14.47
2023-05-31T06:03:48.480Z,14.50
2023-05-31T06:06:15.440Z,14.55
2023-05-31T06:08:41.990Z,14.63
2023-05-31T06:11:08.629Z,14.72
2023-05-31T06:13:35.204Z,14.74
2023-05-31T06:16:04.342Z,14.78
2023-05-31T06:18:31.072Z,14.83
2023-05-31T06:20:57.955Z,14.86
2023-05-31T06:23:24.739Z,14.91
2023-05-31T06:25:52.388Z,14.94
2023-05-31T06:28:19.566Z,14.96
2023-05-31T06:30:46.072Z,15.03
2023-05-31T06:33:13.497Z,15.06
2023-05-31T06:35:41.964Z,15.15
2023-05-31T06:38:08.533Z,15.22
2023-05-31T06:40:37.293Z,15.27
2023-05-31T06:43:03.790Z,15.33
2023-05-31T06:45:30.275Z,15.41
2023-05-31T06:47:58.676Z,15.43
2023-05-31T06:50:27.802Z,15.48
2023-05-31T06:52:54.441Z,15.55
2023-05-31T06:55:21.203Z,15.65
2023-05-31T06:57:47.715Z,15.70
2023-05-31T07:00:15.018Z,15.80
2023-05-31T07:02:41.826Z,15.87
2023-05-31T07:05:08.509Z,15.86
2023-05-31T07:07:35.030Z,15.85
2023-05-31T07:10:02.744Z,15.91
2023-05-31T07:12:29.339Z,16.10
2023-05-31T07:14:55.851Z,16.16
2023-05-31T07:17:22.401Z,16.18
2023-05-31T07:19:50.359Z,16.27
2023-05-31T07:22:18.295Z,16.37
2023-05-31T07:24:45.788Z,16.41
2023-05-31T07:27:12.356Z,16.55
2023-05-31T07:29:39.045Z,16.62
2023-05-31T07:32:06.932Z,16.59
2023-05-31T07:34:34.462Z,16.67
2023-05-31T07:37:01.031Z,16.66
2023-05-31T07:39:27.563Z,16.69
2023-05-31T07:41:54.090Z,16.78
2023-05-31T07:44:21.052Z,16.90
2023-05-31T07:46:47.635Z,16.88
2023-05-31T07:49:14.198Z,17.05
2023-05-31T07:51:40.835Z,17.11
2023-05-31T07:54:07.432Z,17.14
2023-05-31T07:56:33.984Z,17.07
2023-05-31T07:59:00.499Z,17.11
2023-05-31T08:01:27.494Z,17.13
2023-05-31T08:03:56.073Z,17.01
2023-05-31T08:06:23.230Z,17.02
2023-05-31T08:08:49.885Z,17.10
2023-05-31T08:11:16.492Z,17.23
2023-05-31T08:13:43.051Z,17.33
2023-05-31T08:16:09.566Z,17.44
2023-05-31T08:18:36.167Z,17.40
2023-05-31T08:21:04.167Z,17.39
2023-05-31T08:23:31.119Z,17.36
2023-05-31T08:25:57.751Z,17.41
2023-05-31T08:28:24.475Z,17.49
2023-05-31T08:30:51.044Z,17.67
2023-05-31T08:33:17.613Z,17.61
2023-05-31T08:35:44.121Z,17.66
2023-05-31T08:38:10.733Z,17.76
2023-05-31T08:40:37.500Z,17.78
2023-05-31T08:43:08.710Z,17.91
2023-05-31T08:45:36.553Z,17.97
2023-05-31T08:48:35.654Z,17.88
2023-05-31T08:51:06.394Z,17.89
2023-05-31T08:53:35.009Z,17.93
2023-05-31T08:56:02.573Z,18.05
2023-05-31T08:58:31.072Z,18.03
2023-05-31T09:00:57.802Z,18.08
2023-05-31T09:03:27.349Z,18.02
2023-05-31T09:05:56.386Z,18.15
2023-05-31T09:08:23.066Z,18.14
2023-05-31T09:10:49.625Z,18.14
2023-05-31T09:13:16.190Z,18.15
2023-05-31T09:15:45.061Z,18.27
2023-05-31T09:18:20.486Z,18.07
2023-05-31T09:20:55.332Z,18.23
2023-05-31T09:23:21.901Z,18.33
2023-05-31T09:25:50.507Z,18.47
2023-05-31T09:28:20.144Z,18.48
2023-05-31T09:30:46.838Z,18.47
2023-05-31T09:33:16.502Z,18.70
2023-05-31T09:35:57.192Z,18.77
2023-05-31T09:38:33.866Z,18.97
2023-05-31T09:41:22.339Z,18.93
2023-05-31T09:43:50.482Z,18.85
2023-05-31T09:46:19.101Z,18.91
2023-05-31T09:48:57.332Z,18.95
2023-05-31T09:51:24.059Z,19.03
2023-05-31T09:53:58.546Z,19.19
2023-05-31T09:56:28.500Z,19.26
2023-05-31T09:58:58.708Z,19.19
2023-05-31T10:01:26.017Z,19.20
2023-05-31T10:03:53.522Z,19.20
2023-05-31T10:06:20.656Z,19.40
2023-05-31T10:08:47.686Z,19.52
2023-05-31T10:11:17.796Z,19.37
2023-05-31T10:13:45.967Z,19.36
2023-05-31T10:16:12.669Z,19.47
2023-05-31T10:18:44.769Z,19.59
2023-05-31T10:21:23.419Z,19.75
2023-05-31T10:24:03.550Z,19.78
2023-05-31T10:27:22.866Z,19.83
2023-05-31T10:29:55.862Z,19.75
2023-05-31T10:32:27.491Z,19.76
2023-05-31T10:34:54.322Z,19.75
2023-05-31T10:37:22.651Z,19.67
2023-05-31T10:40:11.945Z,19.85
2023-05-31T10:43:07.263Z,20.03
2023-05-31T10:45:33.728Z,19.96
2023-05-31T10:48:14.354Z,19.90
2023-05-31T10:51:13.635Z,19.91
2023-05-31T10:53:41.279Z,19.84
2023-05-31T10:56:10.908Z,19.80
2023-05-31T10:58:48.405Z,19.84
2023-05-31T11:01:19.607Z,20.00
2023-05-31T11:03:47.924Z,20.12
2023-05-31T11:06:23.265Z,20.12
2023-05-31T11:09:01.967Z,20.22
2023-05-31T11:11:34.700Z,20.20
2023-05-31T11:14:07.565Z,20.24
2023-05-31T11:16:55.656Z,20.41
2023-05-31T11:19:28.562Z,20.47
2023-05-31T11:21:57.028Z,20.39
2023-05-31T11:24:30.414Z,20.50
2023-05-31T11:27:01.287Z,20.42
2023-05-31T11:29:47.659Z,20.72
2023-05-31T11:32:18.787Z,20.92
2023-05-31T11:35:04.767Z,20.89
2023-05-31T11:37:32.990Z,20.94
2023-05-31T11:40:07.776Z,21.17
2023-05-31T11:42:38.043Z,21.32
2023-05-31T11:45:06.394Z,21.27
2023-05-31T11:47:45.278Z,21.56
2023-05-31T11:50:17.466Z,21.72
2023-05-31T11:52:45.398Z,21.99
2023-05-31T11:55:15.874Z,22.32
2023-05-31T11:57:47.547Z,22.69
2023-05-31T12:00:16.412Z,23.02
2023-05-31T12:02:45.845Z,23.32
2023-05-31T12:05:13.857Z,23.69
2023-05-31T12:07:40.865Z,24.01
2023-05-31T12:10:08.330Z,24.24
2023-05-31T12:12:36.322Z,24.59
2023-05-31T12:15:03.433Z,24.53
2023-05-31T12:17:33.480Z,24.85
2023-05-31T12:20:01.960Z,25.08
2023-05-31T12:22:28.930Z,25.20
2023-05-31T12:24:59.357Z,25.43
2023-05-31T12:27:43.902Z,25.71
2023-05-31T12:30:17.735Z,25.58
2023-05-31T12:32:47.864Z,25.76
2023-05-31T12:35:15.403Z,25.84
2023-05-31T12:37:42.426Z,25.90
2023-05-31T12:40:24.203Z,26.12
2023-05-31T12:42:51.147Z,26.25
2023-05-31T12:45:19.814Z,26.13
2023-05-31T12:47:57.666Z,26.24
2023-05-31T12:50:24.350Z,26.46
2023-05-31T12:52:58.219Z,26.48
2023-05-31T12:55:24.845Z,26.54
2023-05-31T12:57:52.963Z,26.45
2023-05-31T13:00:20.210Z,26.53
2023-05-31T13:02:47.160Z,26.62
2023-05-31T13:05:14.150Z,26.85
2023-05-31T13:07:41.572Z,26.95
2023-05-31T13:10:12.372Z,26.93
2023-05-31T13:12:39.114Z,26.75
2023-05-31T13:15:06.470Z,26.67
2023-05-31T13:17:34.368Z,26.99
2023-05-31T13:20:10.860Z,27.02
2023-05-31T14:40:19.846Z,25.99
2023-05-31T14:42:46.564Z,26.24
2023-05-31T14:45:13.581Z,25.93
2023-05-31T14:47:41.024Z,25.66
2023-05-31T14:50:09.360Z,25.82
2023-05-31T14:52:35.896Z,25.94
2023-05-31T14:55:02.399Z,26.15
2023-05-31T14:57:28.978Z,25.89
2023-05-31T14:59:55.534Z,25.96
2023-05-31T15:02:22.044Z,25.91
2023-05-31T15:04:48.547Z,25.81
2023-05-31T15:07:15.320Z,25.77
2023-05-31T15:09:42.054Z,25.78
2023-05-31T15:12:10.806Z,25.78
2023-05-31T15:14:37.606Z,25.85
2023-05-31T15:17:04.289Z,25.65
2023-05-31T15:19:30.910Z,25.61
2023-05-31T15:21:57.471Z,25.45
2023-05-31T15:24:24.002Z,25.54
2023-05-31T15:26:52.468Z,25.61
2023-05-31T15:29:19.826Z,25.86
2023-05-31T15:31:46.454Z,26.03
2023-05-31T15:34:13.116Z,25.97
2023-05-31T15:36:39.600Z,25.81
2023-05-31T15:39:06.956Z,25.45
2023-05-31T15:41:35.071Z,25.16
2023-05-31T15:44:03.399Z,25.18
2023-05-31T15:46:30.025Z,25.22
2023-05-31T15:48:56.710Z,25.34
2023-05-31T15:51:24.480Z,25.42
2023-05-31T15:53:52.317Z,25.40
2023-05-31T15:56:20.683Z,25.36
2023-05-31T15:58:47.280Z,25.22
2023-05-31T16:01:13.937Z,25.11
2023-05-31T16:03:41.375Z,25.22
2023-05-31T16:06:07.964Z,25.42
2023-05-31T16:08:34.688Z,25.51
2023-05-31T16:11:01.421Z,25.38
2023-05-31T16:13:28.080Z,25.33
2023-05-31T16:15:54.729Z,25.32
2023-05-31T16:18:21.407Z,25.29
2023-05-31T16:20:48.084Z,25.31
2023-05-31T16:23:14.636Z,25.42
2023-05-31T16:25:41.118Z,25.57
2023-05-31T16:28:07.643Z,25.71
2023-05-31T16:30:34.153Z,25.68
2023-05-31T16:33:00.683Z,25.87
2023-05-31T16:35:27.235Z,25.91
2023-05-31T16:37:53.749Z,25.98
2023-05-31T16:40:23.286Z,25.94
2023-05-31T16:42:51.118Z,25.89
2023-05-31T16:45:17.688Z,25.90
2023-05-31T16:47:44.303Z,25.80
2023-05-31T16:50:11.032Z,25.83
2023-05-31T16:52:37.689Z,25.91
2023-05-31T16:55:04.964Z,25.72
2023-05-31T16:57:31.495Z,25.91
2023-05-31T16:59:59.091Z,26.07
2023-05-31T17:02:25.907Z,26.03
2023-05-31T17:04:52.482Z,26.08
2023-05-31T17:07:19.216Z,26.01
2023-05-31T17:09:45.742Z,26.09
2023-05-31T17:12:12.330Z,26.09
2023-05-31T17:14:38.797Z,26.00
2023-05-31T17:17:05.544Z,25.98
2023-05-31T17:19:32.078Z,25.87
2023-05-31T17:21:58.781Z,25.87
2023-05-31T17:24:25.473Z,25.76
2023-05-31T17:26:51.956Z,25.80
2023-05-31T17:29:19.433Z,25.73
2023-05-31T17:31:47.829Z,25.71
2023-05-31T17:34:14.718Z,25.67
2023-05-31T17:36:41.482Z,25.68
2023-05-31T17:39:07.989Z,25.41
2023-05-31T17:41:34.548Z,25.26
2023-05-31T17:44:01.322Z,25.24
2023-05-31T17:46:27.879Z,25.17
2023-05-31T17:48:54.503Z,25.24
2023-05-31T17:51:21.089Z,25.15
2023-05-31T17:53:47.639Z,25.12
2023-05-31T17:56:14.261Z,25.02
2023-05-31T17:58:40.870Z,25.00
2023-05-31T18:01:07.502Z,24.86
2023-05-31T18:03:34.160Z,24.75
2023-05-31T18:06:00.805Z,24.63
2023-05-31T18:08:27.403Z,24.46
2023-05-31T18:10:53.933Z,24.38
2023-05-31T18:13:20.573Z,24.27
2023-05-31T18:15:47.278Z,24.30
2023-05-31T18:18:14.944Z,24.11
2023-05-31T18:20:43.104Z,24.12
2023-05-31T18:23:09.655Z,24.15
2023-05-31T18:25:36.307Z,24.15
2023-05-31T18:28:03.614Z,24.15
2023-05-31T18:30:33.573Z,23.95
2023-05-31T18:33:00.505Z,23.91
2023-05-31T18:35:27.124Z,23.82
2023-05-31T18:37:53.684Z,23.74
2023-05-31T18:40:20.506Z,23.67
2023-05-31T18:42:47.015Z,23.65
2023-05-31T18:45:13.650Z,23.59
2023-05-31T18:47:40.439Z,23.56
2023-05-31T18:50:07.917Z,23.39
2023-05-31T18:52:35.153Z,23.30
2023-05-31T18:55:01.696Z,23.32
2023-05-31T18:57:28.835Z,23.25
2023-05-31T18:59:56.053Z,23.21
2023-05-31T19:02:22.526Z,23.16
2023-05-31T19:04:49.068Z,23.11
2023-05-31T19:07:15.624Z,23.05
2023-05-31T19:09:42.115Z,22.97
2023-05-31T19:12:16.180Z,22.83
2023-05-31T19:14:49.542Z,22.72
2023-05-31T19:17:16.106Z,22.66
2023-05-31T19:19:42.669Z,22.58
2023-05-31T19:22:09.206Z,22.56
2023-05-31T19:24:35.867Z,22.47
2023-05-31T19:27:02.405Z,22.40
2023-05-31T19:29:29.075Z,22.35
2023-05-31T19:31:55.788Z,22.27
2023-05-31T19:34:22.315Z,22.31
2023-05-31T19:36:48.802Z,22.25
2023-05-31T19:39:17.850Z,22.15
2023-05-31T19:41:44.798Z,22.12
2023-05-31T19:44:11.256Z,22.08
2023-05-31T19:46:37.837Z,22.04
2023-05-31T19:49:04.635Z,21.94
2023-05-31T19:51:31.167Z,21.91
2023-05-31T19:53:57.626Z,21.87
2023-05-31T19:56:24.172Z,21.84
2023-05-31T19:58:50.700Z,21.78
2023-05-31T20:01:17.222Z,21.69
2023-05-31T20:03:43.830Z,21.58
2023-05-31T20:06:10.634Z,21.57
2023-05-31T20:08:37.213Z,21.52
2023-05-31T20:11:03.717Z,21.52
2023-05-31T20:13:30.553Z,21.49
2023-05-31T20:15:57.119Z,21.45
2023-05-31T20:18:23.813Z,21.39
2023-05-31T20:20:51.657Z,21.35
2023-05-31T20:23:18.296Z,21.30
2023-05-31T20:25:44.913Z,21.20
2023-05-31T20:28:11.495Z,21.17
2023-05-31T20:30:37.973Z,21.16
2023-05-31T20:33:04.557Z,21.13
2023-05-31T20:35:31.042Z,21.10
2023-05-31T20:37:57.565Z,21.04
2023-05-31T20:40:27.228Z,21.00
2023-05-31T20:42:54.945Z,20.94
2023-05-31T20:45:21.890Z,20.86
2023-05-31T20:47:48.425Z,20.81
2023-05-31T20:50:15.724Z,20.78
2023-05-31T20:52:42.375Z,20.75
2023-05-31T20:55:09.758Z,20.64
2023-05-31T20:57:36.671Z,20.67
2023-05-31T21:00:04.838Z,20.65
2023-05-31T21:02:31.606Z,20.66
2023-05-31T21:05:00.035Z,20.66
2023-05-31T21:07:27.159Z,20.67
2023-05-31T21:09:57.053Z,20.59
2023-05-31T21:12:23.640Z,20.55
2023-05-31T21:14:50.715Z,20.56
2023-05-31T21:17:17.224Z,20.50
2023-05-31T21:19:43.724Z,20.48
2023-05-31T21:22:10.267Z,20.47
2023-05-31T21:24:36.828Z,20.48
2023-05-31T21:27:03.448Z,20.43
2023-05-31T21:29:29.921Z,20.31
2023-05-31T21:31:56.555Z,20.17
2023-05-31T21:34:23.066Z,20.08
2023-05-31T21:36:49.810Z,19.98
2023-05-31T21:39:16.335Z,19.92
2023-05-31T21:41:42.859Z,19.78
2023-05-31T21:44:09.535Z,19.73
2023-05-31T21:46:36.111Z,19.59
2023-05-31T21:49:02.658Z,19.51
2023-05-31T21:51:29.209Z,19.32
2023-05-31T21:53:55.778Z,19.24
2023-05-31T21:56:22.487Z,19.13
2023-05-31T21:58:49.067Z,19.01
2023-05-31T22:01:16.121Z,18.92
2023-05-31T22:03:42.802Z,18.81
2023-05-31T22:06:09.331Z,18.80
2023-05-31T22:08:35.874Z,18.83
2023-05-31T22:11:02.587Z,18.78
2023-05-31T22:13:31.486Z,18.74
2023-05-31T22:15:58.597Z,18.70
2023-05-31T22:18:25.487Z,18.65
2023-05-31T22:20:54.664Z,18.61
2023-05-31T22:23:25.163Z,18.53
2023-05-31T22:25:53.073Z,18.44
2023-05-31T22:28:21.255Z,18.31
2023-05-31T22:30:47.925Z,18.24
2023-05-31T22:33:14.810Z,18.18
2023-05-31T22:35:41.433Z,18.16
2023-05-31T22:38:07.958Z,18.21
2023-05-31T22:40:34.508Z,18.23
2023-05-31T22:43:03.816Z,18.20
2023-05-31T22:45:30.359Z,18.15
2023-05-31T22:47:58.543Z,18.23
2023-05-31T22:50:25.712Z,18.33
2023-05-31T22:52:52.315Z,18.46
2023-05-31T22:55:18.810Z,18.54
2023-05-31T22:57:45.441Z,18.53
2023-05-31T23:00:12.554Z,18.58
2023-05-31T23:02:40.133Z,18.54
2023-05-31T23:05:08.127Z,18.61
2023-05-31T23:07:36.429Z,18.49
2023-05-31T23:10:05.047Z,18.58
2023-05-31T23:12:32.129Z,18.45
2023-05-31T23:15:04.299Z,18.50
2023-05-31T23:17:43.468Z,18.52
2023-05-31T23:20:15.632Z,18.47
2023-05-31T23:22:43.656Z,18.50
2023-05-31T23:25:11.448Z,18.48
2023-05-31T23:27:38.923Z,18.43
2023-05-31T23:30:07.556Z,18.29
2023-05-31T23:32:34.162Z,18.22
2023-05-31T23:35:01.238Z,18.13
2023-05-31T23:37:27.827Z,18.19
2023-05-31T23:39:54.777Z,18.22
2023-05-31T23:42:21.559Z,18.19
2023-05-31T23:44:48.022Z,18.15
2023-05-31T23:47:14.552Z,18.12
2023-05-31T23:49:41.105Z,18.03
2023-05-31T23:52:07.661Z,17.99
2023-05-31T23:54:34.256Z,17.92
2023-05-31T23:57:00.818Z,17.94
2023-05-31T23:59:27.584Z,17.93
